createdAt,value
2018-01-22T00:00:27.565Z,99027.17
2018-01-22T00:02:56.727Z,99031.83
2018-01-22T00:05:26.717Z,99031.41
2018-01-22T00:07:55.749Z,99029.32
2018-01-22T00:10:24.868Z,99028.53
2018-01-22T00:12:53.897Z,99023.39
2018-01-22T00:15:22.829Z,99023.45
2018-01-22T00:17:52.886Z,99022.58
2018-01-22T00:20:21.866Z,99020.40
2018-01-22T00:22:51.037Z,99026.27
2018-01-22T00:25:20.494Z,99014.83
2018-01-22T00:27:53.108Z,99021.16
2018-01-22T00:30:22.859Z,99013.09
2018-01-22T00:32:55.310Z,99005.95
2018-01-22T00:35:24.431Z,99005.53
2018-01-22T00:37:54.482Z,99004.70
2018-01-22T00:40:25.421Z,98998.79
2018-01-22T00:42:55.340Z,99005.98
2018-01-22T00:45:24.397Z,98996.81
2018-01-22T00:47:54.702Z,99003.47
2018-01-22T00:50:23.730Z,98996.44
2018-01-22T00:52:52.721Z,99000.64
2018-01-22T00:55:24.749Z,98998.52
2018-01-22T00:57:54.770Z,98995.16
2018-01-22T01:00:24.097Z,98988.83
2018-01-22T01:02:53.407Z,98988.52
2018-01-22T01:05:22.766Z,98983.36
2018-01-22T01:07:52.030Z,98990.48
2018-01-22T01:10:21.240Z,98982.95
2018-01-22T01:12:50.505Z,98986.46
2018-01-22T01:15:19.719Z,98980.98
2018-01-22T01:17:51.334Z,98980.05
2018-01-22T01:20:20.365Z,98981.28
2018-01-22T01:22:50.208Z,98984.75
2018-01-22T01:25:20.337Z,98986.58
2018-01-22T01:27:51.100Z,98980.31
2018-01-22T01:30:20.380Z,98990.16
2018-01-22T01:32:50.584Z,98982.45
2018-01-22T01:35:19.887Z,98979.42
2018-01-22T01:37:49.048Z,98982.13
2018-01-22T01:40:19.894Z,98982.52
2018-01-22T01:42:49.193Z,98982.92
2018-01-22T01:45:19.148Z,98982.50
2018-01-22T01:47:50.909Z,98977.85
2018-01-22T01:50:19.962Z,98982.32
2018-01-22T01:52:48.956Z,98983.19
2018-01-22T01:55:18.094Z,98975.61
2018-01-22T01:57:48.053Z,98973.47
2018-01-22T02:00:18.189Z,98977.42
2018-01-22T02:02:50.120Z,98977.00
2018-01-22T02:05:20.065Z,98976.44
2018-01-22T02:07:49.370Z,98973.17
2018-01-22T02:10:18.409Z,98972.87
2018-01-22T02:12:47.433Z,98971.20
2018-01-22T02:15:16.583Z,98970.81
2018-01-22T02:17:46.605Z,98969.47
2018-01-22T02:20:15.704Z,98970.83
2018-01-22T02:22:45.281Z,98970.19
2018-01-22T02:25:15.234Z,98971.30
2018-01-22T02:27:44.282Z,98961.24
2018-01-22T02:30:13.293Z,98959.06
2018-01-22T02:32:43.260Z,98968.09
2018-01-22T02:35:12.290Z,98961.73
2018-01-22T02:37:41.576Z,98958.68
2018-01-22T02:40:10.743Z,98961.91
2018-01-22T02:42:42.730Z,98958.28
2018-01-22T02:45:14.516Z,98962.36
2018-01-22T02:47:44.427Z,98956.77
2018-01-22T02:50:13.448Z,98959.38
2018-01-22T02:52:44.045Z,98961.92
2018-01-22T02:55:13.250Z,98960.30
2018-01-22T02:57:42.247Z,98960.69
2018-01-22T03:00:13.292Z,98957.23
2018-01-22T03:02:42.723Z,98955.55
2018-01-22T03:05:13.094Z,98950.20
2018-01-22T03:07:42.304Z,98956.64
2018-01-22T03:10:11.340Z,98954.64
2018-01-22T03:12:40.384Z,98952.47
2018-01-22T03:15:11.274Z,98956.28
2018-01-22T03:17:40.983Z,98960.00
2018-01-22T03:20:11.075Z,98961.52
2018-01-22T03:22:40.268Z,98957.76
2018-01-22T03:25:09.367Z,98973.66
2018-01-22T03:27:39.257Z,98970.73
2018-01-22T03:30:10.993Z,98977.22
2018-01-22T03:32:40.275Z,98975.23
2018-01-22T03:35:09.260Z,98964.27
2018-01-22T03:37:40.889Z,98972.53
2018-01-22T03:40:11.093Z,98968.92
2018-01-22T03:42:40.108Z,98969.78
2018-01-22T03:45:10.164Z,98978.28
2018-01-22T03:47:39.216Z,98966.10
2018-01-22T03:50:10.648Z,98963.77
2018-01-22T03:52:39.901Z,98961.37
2018-01-22T03:55:09.176Z,98966.20
2018-01-22T03:57:39.935Z,98962.13
2018-01-22T04:00:09.016Z,98951.36
2018-01-22T04:02:38.319Z,98955.20
2018-01-22T04:05:08.276Z,98946.39
2018-01-22T04:07:37.417Z,98949.03
2018-01-22T04:10:07.157Z,98950.28
2018-01-22T04:12:37.992Z,98948.25
2018-01-22T04:15:07.192Z,98952.13
2018-01-22T04:17:36.367Z,98955.52
2018-01-22T04:20:07.531Z,98960.14
2018-01-22T04:22:36.674Z,98966.44
2018-01-22T04:25:05.535Z,98966.11
2018-01-22T04:27:34.896Z,98975.37
2018-01-22T04:30:03.989Z,98967.38
2018-01-22T04:32:33.164Z,98976.62
2018-01-22T04:35:04.600Z,98977.10
2018-01-22T04:37:33.635Z,98984.22
2018-01-22T04:40:03.785Z,98982.09
2018-01-22T04:42:33.787Z,98993.81
2018-01-22T04:45:02.890Z,98991.73
2018-01-22T04:47:41.431Z,98996.77
2018-01-22T04:50:11.316Z,98995.51
2018-01-22T04:52:41.436Z,99002.27
2018-01-22T04:55:12.479Z,99002.70
2018-01-22T04:57:41.400Z,99008.16
2018-01-22T05:00:10.568Z,99011.91
2018-01-22T05:02:39.703Z,99018.66
2018-01-22T05:05:08.762Z,99022.00
2018-01-22T05:07:37.609Z,99023.28
2018-01-22T05:10:07.600Z,99031.25
2018-01-22T05:12:36.692Z,99030.38
2018-01-22T05:15:05.692Z,99035.44
2018-01-22T05:17:34.888Z,99034.61
2018-01-22T05:20:03.850Z,99041.31
2018-01-22T05:22:33.276Z,99039.22
2018-01-22T05:25:03.297Z,99047.19
2018-01-22T05:27:32.257Z,99051.78
2018-01-22T05:30:01.861Z,99050.13
2018-01-22T05:32:31.912Z,99052.63
2018-01-22T05:35:01.690Z,99056.83
2018-01-22T05:37:30.592Z,99061.04
2018-01-22T05:40:00.435Z,99057.27
2018-01-22T05:42:29.853Z,99052.23
2018-01-22T05:44:58.951Z,99053.49
2018-01-22T05:47:29.125Z,99057.30
2018-01-22T05:49:58.328Z,99061.48
2018-01-22T05:52:27.628Z,99063.16
2018-01-22T05:54:58.668Z,99062.30
2018-01-22T05:57:27.871Z,99079.09
2018-01-22T05:59:57.514Z,99072.78
2018-01-22T06:02:28.418Z,99075.27
2018-01-22T06:04:57.568Z,99081.16
2018-01-22T06:07:27.768Z,99091.23
2018-01-22T06:09:57.194Z,99087.48
2018-01-22T06:12:26.950Z,99090.01
2018-01-22T06:14:56.690Z,99085.39
2018-01-22T06:17:26.580Z,99091.68
2018-01-22T06:19:56.481Z,99090.83
2018-01-22T06:22:25.790Z,99087.49
2018-01-22T06:24:54.956Z,99095.89
2018-01-22T06:27:23.980Z,99100.92
2018-01-22T06:29:55.081Z,99101.33
2018-01-22T06:32:24.120Z,99100.48
2018-01-22T06:34:54.160Z,99106.79
2018-01-22T06:37:23.128Z,99114.31
2018-01-22T06:42:28.899Z,99110.11
2018-01-22T06:44:57.824Z,99109.66
2018-01-22T06:47:26.713Z,99115.97
2018-01-22T06:49:55.785Z,99120.97
2018-01-22T06:52:26.608Z,99123.09
2018-01-22T06:54:56.428Z,99123.91
2018-01-22T06:57:25.482Z,99129.72
2018-01-22T06:59:55.105Z,99128.88
2018-01-22T07:02:24.938Z,99136.44
2018-01-22T07:04:54.749Z,99135.58
2018-01-22T07:07:26.229Z,99131.34
2018-01-22T07:09:56.221Z,99138.05
2018-01-22T07:12:26.624Z,99142.20
2018-01-22T07:14:59.586Z,99148.05
2018-01-22T07:17:29.982Z,99151.84
2018-01-22T07:19:59.569Z,99158.59
2018-01-22T07:22:30.404Z,99153.16
2018-01-22T07:25:00.299Z,99158.17
2018-01-22T07:27:30.244Z,99162.35
2018-01-22T07:30:00.951Z,99157.73
2018-01-22T07:32:31.018Z,99158.14
2018-01-22T07:35:00.031Z,99158.14
2018-01-22T07:37:31.033Z,99171.49
2018-01-22T07:39:59.949Z,99174.02
2018-01-22T07:42:29.791Z,99194.16
2018-01-22T07:45:00.087Z,99187.41
2018-01-22T07:47:29.052Z,99195.83
2018-01-22T07:49:58.152Z,99196.25
2018-01-22T07:52:29.269Z,99188.72
2018-01-22T07:54:58.389Z,99200.08
2018-01-22T07:57:27.488Z,99203.02
2018-01-22T07:59:57.605Z,99203.84
2018-01-22T08:02:27.458Z,99204.68
2018-01-22T08:04:59.331Z,99203.43
2018-01-22T08:07:28.746Z,99198.80
2018-01-22T08:09:57.921Z,99205.95
2018-01-22T08:12:30.357Z,99229.89
2018-01-22T08:15:00.288Z,99237.01
2018-01-22T08:17:29.395Z,99219.73
2018-01-22T08:19:59.412Z,99238.22
2018-01-22T08:22:28.614Z,99236.14
2018-01-22T08:24:57.577Z,99235.70
2018-01-22T08:27:29.183Z,99253.36
2018-01-22T08:29:59.782Z,99240.70
2018-01-22T08:32:28.912Z,99243.23
2018-01-22T08:34:58.732Z,99246.17
2018-01-22T08:37:29.209Z,99261.72
2018-01-22T08:39:58.126Z,99243.30
2018-01-22T08:42:29.511Z,99250.79
2018-01-22T08:44:58.828Z,99251.66
2018-01-22T08:47:27.774Z,99253.28
2018-01-22T08:49:57.584Z,99251.64
2018-01-22T08:52:26.549Z,99264.66
2018-01-22T08:54:56.511Z,99262.99
2018-01-22T08:57:26.404Z,99269.30
2018-01-22T08:59:56.233Z,99259.64
2018-01-22T09:02:25.312Z,99270.14
2018-01-22T09:04:56.840Z,99271.03
2018-01-22T09:07:25.937Z,99284.86
2018-01-22T09:09:54.985Z,99274.40
2018-01-22T09:12:25.759Z,99277.29
2018-01-22T09:14:54.989Z,99279.02
2018-01-22T09:17:23.992Z,99281.95
2018-01-22T09:19:55.355Z,99276.94
2018-01-22T09:22:24.610Z,99285.34
2018-01-22T09:24:54.270Z,99279.51
2018-01-22T09:27:23.392Z,99288.31
2018-01-22T09:29:53.345Z,99287.44
2018-01-22T09:32:23.240Z,99287.84
2018-01-22T09:34:53.259Z,99278.59
2018-01-22T09:37:22.360Z,99292.91
2018-01-22T09:39:51.486Z,99278.61
2018-01-22T09:42:22.989Z,99294.62
2018-01-22T09:44:52.755Z,99282.43
2018-01-22T09:47:22.155Z,99298.42
2018-01-22T09:49:51.810Z,99277.85
2018-01-22T09:52:21.141Z,99274.92
2018-01-22T09:54:51.016Z,99272.42
2018-01-22T09:57:20.148Z,99277.00
2018-01-22T09:59:49.240Z,99279.09
2018-01-22T10:02:18.197Z,99279.52
2018-01-22T10:04:50.350Z,99288.33
2018-01-22T10:07:19.298Z,99293.40
2018-01-22T10:09:48.602Z,99298.03
2018-01-22T10:12:18.998Z,99309.78
2018-01-22T10:14:48.350Z,99314.42
2018-01-22T10:17:17.460Z,99298.04
2018-01-22T10:19:46.923Z,99310.67
2018-01-22T10:22:16.851Z,99306.05
2018-01-22T10:24:47.285Z,99315.30
2018-01-22T10:27:17.035Z,99322.00
2018-01-22T10:29:48.886Z,99313.20
2018-01-22T10:32:19.459Z,99321.17
2018-01-22T10:34:49.097Z,99320.33
2018-01-22T10:37:20.420Z,99322.83
2018-01-22T10:39:50.139Z,99314.87
2018-01-22T10:42:20.275Z,99309.38
2018-01-22T10:44:50.995Z,99314.03
2018-01-22T10:47:20.755Z,99317.39
2018-01-22T10:49:50.473Z,99332.09
2018-01-22T10:52:20.380Z,99337.95
2018-01-22T10:54:49.998Z,99332.48
2018-01-22T10:57:20.167Z,99339.20
2018-01-22T10:59:50.040Z,99342.55
2018-01-22T11:02:20.305Z,99346.75
2018-01-22T11:04:49.469Z,99345.03
2018-01-22T11:07:19.304Z,99342.55
2018-01-22T11:09:52.496Z,99336.68
2018-01-22T11:12:21.426Z,99356.36
2018-01-22T11:14:50.504Z,99355.06
2018-01-22T11:17:19.594Z,99346.25
2018-01-22T11:19:49.615Z,99354.64
2018-01-22T11:22:19.425Z,99344.98
2018-01-22T11:24:48.755Z,99348.34
2018-01-22T11:27:18.632Z,99357.09
2018-01-22T11:33:19.890Z,99342.34
2018-01-22T11:35:49.012Z,99353.20
2018-01-22T11:38:17.969Z,99351.97
2018-01-22T11:40:46.941Z,99340.30
2018-01-22T11:43:15.885Z,99365.03
2018-01-22T11:45:45.090Z,99364.95
2018-01-22T11:48:15.031Z,99348.09
2018-01-22T11:50:44.006Z,99366.14
2018-01-22T11:53:13.012Z,99363.68
2018-01-22T11:55:50.080Z,99369.84
2018-01-22T11:58:19.123Z,99380.35
2018-01-22T12:00:48.004Z,99389.17
2018-01-22T12:03:18.604Z,99384.16
2018-01-22T12:05:50.061Z,99397.98
2018-01-22T12:08:19.373Z,99404.98
2018-01-22T12:10:48.461Z,99382.75
2018-01-22T12:13:18.273Z,99387.33
2018-01-22T12:15:49.011Z,99388.14
2018-01-22T12:18:18.197Z,99401.08
2018-01-22T12:20:47.309Z,99396.02
2018-01-22T12:23:17.447Z,99405.64
2018-01-22T12:25:46.730Z,99432.89
2018-01-22T12:28:15.721Z,99419.02
2018-01-22T12:30:47.173Z,99423.60
2018-01-22T12:33:16.178Z,99435.38
2018-01-22T12:35:52.732Z,99464.25
2018-01-22T12:38:21.690Z,99444.03
2018-01-22T12:40:51.447Z,99454.17
2018-01-22T12:43:21.094Z,99456.61
2018-01-22T12:45:49.942Z,99475.53
2018-01-22T12:48:18.867Z,99475.45
2018-01-22T12:50:49.670Z,99472.86
2018-01-22T12:53:19.733Z,99487.47
2018-01-22T12:55:48.934Z,99485.78
2018-01-22T12:58:20.513Z,99506.33
2018-01-22T13:00:50.384Z,99509.51
2018-01-22T13:03:19.384Z,99510.14
2018-01-22T13:05:50.190Z,99510.69
2018-01-22T13:08:19.308Z,99518.70
2018-01-22T13:10:48.993Z,99526.52
2018-01-22T13:13:20.882Z,99523.69
2018-01-22T13:15:49.775Z,99529.03
2018-01-22T13:18:18.904Z,99543.24
2018-01-22T13:20:48.998Z,99545.30
2018-01-22T13:23:17.968Z,99553.09
2018-01-22T13:25:47.193Z,99553.77
2018-01-22T13:28:16.188Z,99548.41
2018-01-22T13:30:45.355Z,99563.80
2018-01-22T13:33:14.446Z,99554.70
2018-01-22T13:35:43.892Z,99560.39
2018-01-22T13:38:13.041Z,99567.50
2018-01-22T13:43:47.831Z,99569.42
2018-01-22T13:46:16.729Z,99574.80
2018-01-22T13:48:46.593Z,99581.37
2018-01-22T13:51:17.307Z,99582.09
2018-01-22T13:53:47.176Z,99593.24
2018-01-22T13:56:16.286Z,99583.15
2018-01-22T13:58:47.661Z,99598.60
2018-01-22T14:01:18.979Z,99600.13
2018-01-22T14:03:48.201Z,99596.02
2018-01-22T14:06:17.697Z,99596.76
2018-01-22T14:08:47.537Z,99617.58
2018-01-22T14:11:16.559Z,99624.27
2018-01-22T14:13:50.139Z,99630.98
2018-01-22T14:16:20.106Z,99621.21
2018-01-22T14:18:49.311Z,99605.39
2018-01-22T14:21:19.403Z,99632.15
2018-01-22T14:23:48.389Z,99621.12
2018-01-22T14:26:17.488Z,99640.59
2018-01-22T14:28:46.426Z,99621.06
2018-01-22T14:31:15.392Z,99637.25
2018-01-22T14:33:46.124Z,99625.80
2018-01-22T14:36:16.020Z,99650.95
2018-01-22T14:38:45.184Z,99640.88
2018-01-22T14:41:14.684Z,99664.39
2018-01-22T14:43:44.998Z,99660.78
2018-01-22T14:46:13.886Z,99671.66
2018-01-22T14:48:42.999Z,99668.94
2018-01-22T14:51:12.828Z,99698.09
2018-01-22T14:53:43.515Z,99696.80
2018-01-22T14:56:14.225Z,99690.74
2018-01-22T14:58:44.273Z,99688.95
2018-01-22T15:01:13.194Z,99709.34
2018-01-22T15:03:46.279Z,99712.59
2018-01-22T15:06:15.377Z,99716.75
2018-01-22T15:08:44.572Z,99716.48
2018-01-22T15:11:17.329Z,99711.53
2018-01-22T15:13:46.343Z,99706.32
2018-01-22T15:16:15.353Z,99714.28
2018-01-22T15:18:47.903Z,99700.19
2018-01-22T15:21:17.225Z,99727.32
2018-01-22T15:23:46.215Z,99714.47
2018-01-22T15:26:15.402Z,99742.35
2018-01-22T15:28:44.432Z,99732.70
2018-01-22T15:31:15.818Z,99730.60
2018-01-22T15:33:45.795Z,99737.69
2018-01-22T15:36:14.991Z,99743.38
2018-01-22T15:38:43.993Z,99743.05
2018-01-22T15:41:13.218Z,99743.91
2018-01-22T15:43:42.226Z,99760.95
2018-01-22T15:46:12.097Z,99756.70
2018-01-22T15:48:46.005Z,99772.95
2018-01-22T15:51:15.101Z,99765.92
2018-01-22T15:53:44.606Z,99783.86
2018-01-22T15:56:15.636Z,99775.83
2018-01-22T15:58:46.286Z,99788.63
2018-01-22T16:01:15.589Z,99813.47
2018-01-22T16:03:45.019Z,99799.44
2018-01-22T16:06:14.165Z,99802.27
2018-01-22T16:08:43.977Z,99817.59
2018-01-22T16:11:15.111Z,99823.02
2018-01-22T16:13:44.077Z,99828.77
2018-01-22T16:16:13.881Z,99843.38
2018-01-22T16:18:43.280Z,99844.06
2018-01-22T16:21:12.394Z,99847.85
2018-01-22T16:23:42.094Z,99838.80
2018-01-22T16:26:12.236Z,99865.47
2018-01-22T16:28:42.174Z,99872.48
2018-01-22T16:31:11.225Z,99868.57
2018-01-22T16:33:41.118Z,99851.40
2018-01-22T16:36:11.002Z,99874.39
2018-01-22T16:38:40.466Z,99886.10
2018-01-22T16:41:10.444Z,99899.39
2018-01-22T16:43:40.074Z,99891.05
2018-01-22T16:46:09.247Z,99911.73
2018-01-22T16:48:40.803Z,99908.06
2018-01-22T16:51:10.352Z,99917.30
2018-01-22T16:53:39.384Z,99924.34
2018-01-22T16:56:11.313Z,99941.84
2018-01-22T16:58:40.337Z,99941.42
2018-01-22T17:01:09.291Z,99941.88
2018-01-22T17:03:40.005Z,99938.62
2018-01-22T17:06:10.618Z,99951.02
2018-01-22T17:08:39.820Z,99962.92
2018-01-22T17:11:09.163Z,99966.19
2018-01-22T17:13:38.513Z,99951.72
2018-01-22T17:16:07.515Z,99964.88
2018-01-22T17:18:38.080Z,99969.92
2018-01-22T17:21:07.219Z,99983.94
2018-01-22T17:23:37.602Z,99985.27
2018-01-22T17:26:10.380Z,99973.69
2018-01-22T17:28:40.307Z,99983.67
2018-01-22T17:31:09.410Z,99990.75
2018-01-22T17:33:39.311Z,99993.22
2018-01-22T17:36:08.474Z,99970.92
2018-01-22T17:38:41.154Z,99986.98
2018-01-22T17:41:10.038Z,99990.72
2018-01-22T17:43:40.125Z,99987.41
2018-01-22T17:46:09.520Z,100009.34
2018-01-22T17:48:39.690Z,100011.51
2018-01-22T17:51:08.690Z,100017.34
2018-01-22T17:53:39.741Z,100007.92
2018-01-22T17:56:09.135Z,100021.23
2018-01-22T17:58:38.157Z,100023.31
2018-01-22T18:01:07.663Z,100026.87
2018-01-22T18:03:37.091Z,100034.55
2018-01-22T18:06:08.034Z,100026.39
2018-01-22T18:08:37.577Z,100013.44
2018-01-22T18:11:06.723Z,100004.11
2018-01-22T18:13:36.869Z,100013.50
2018-01-22T18:16:06.328Z,100019.34
2018-01-22T18:18:36.476Z,100016.94
2018-01-22T18:21:06.928Z,100036.05
2018-01-22T18:23:36.033Z,100032.36
2018-01-22T18:26:05.373Z,100032.55
2018-01-22T18:28:34.619Z,100037.89
2018-01-22T18:31:05.093Z,100044.97
2018-01-22T18:33:34.441Z,100056.45
2018-01-22T18:36:04.763Z,100053.56
2018-01-22T18:38:35.133Z,100048.23
2018-01-22T18:41:04.404Z,100044.45
2018-01-22T18:43:33.826Z,100047.44
2018-01-22T18:46:04.148Z,100066.95
2018-01-22T18:48:33.716Z,100082.20
2018-01-22T18:51:03.357Z,100068.11
2018-01-22T18:53:33.721Z,100071.73
2018-01-22T18:56:03.010Z,100080.30
2018-01-22T18:58:32.258Z,100084.16
2018-01-22T19:01:02.631Z,100096.54
2018-01-22T19:03:32.137Z,100104.48
2018-01-22T19:06:04.239Z,100122.06
2018-01-22T19:08:34.140Z,100099.97
2018-01-22T19:11:03.754Z,100118.53
2018-01-22T19:13:35.838Z,100105.41
2018-01-22T19:16:05.795Z,100112.00
2018-01-22T19:18:34.985Z,100106.95
2018-01-22T19:21:05.036Z,100103.09
2018-01-22T19:23:38.628Z,100117.40
2018-01-22T19:26:07.685Z,100118.66
2018-01-22T19:28:36.977Z,100122.78
2018-01-22T19:31:07.136Z,100140.83
2018-01-22T19:33:37.430Z,100133.08
2018-01-22T19:36:06.774Z,100145.39
2018-01-22T19:38:35.972Z,100154.63
2018-01-22T19:41:05.493Z,100150.47
2018-01-22T19:43:34.845Z,100157.09
2018-01-22T19:46:04.467Z,100166.56
2018-01-22T19:48:34.508Z,100175.91
2018-01-22T19:51:05.338Z,100169.52
2018-01-22T19:53:34.340Z,100184.83
2018-01-22T19:56:05.384Z,100174.89
2018-01-22T19:58:35.039Z,100175.27
2018-01-22T20:01:04.252Z,100169.02
2018-01-22T20:03:34.417Z,100180.63
2018-01-22T20:06:04.520Z,100191.30
2018-01-22T20:08:33.563Z,100188.91
2018-01-22T20:11:06.212Z,100196.23
2018-01-22T20:13:35.955Z,100197.84
2018-01-22T20:16:05.096Z,100207.64
2018-01-22T20:18:34.426Z,100192.14
2018-01-22T20:21:03.613Z,100204.65
2018-01-22T20:23:33.833Z,100206.34
2018-01-22T20:26:03.891Z,100211.44
2018-01-22T20:28:33.510Z,100207.75
2018-01-22T20:31:03.686Z,100194.59
2018-01-22T20:33:33.596Z,100194.80
2018-01-22T20:36:03.149Z,100209.78
2018-01-22T20:38:33.434Z,100219.41
2018-01-22T20:41:04.311Z,100203.84
2018-01-22T20:43:34.363Z,100211.19
2018-01-22T20:46:03.657Z,100204.39
2018-01-22T20:48:34.662Z,100212.25
2018-01-22T20:51:03.877Z,100216.27
2018-01-22T20:53:32.850Z,100220.48
2018-01-22T20:56:02.083Z,100221.69
2018-01-22T20:58:31.915Z,100215.17
2018-01-22T21:01:01.711Z,100226.29
2018-01-22T21:03:31.961Z,100223.80
2018-01-22T21:06:01.113Z,100230.39
2018-01-22T21:08:30.195Z,100234.74
2018-01-22T21:11:01.306Z,100217.67
2018-01-22T21:13:30.356Z,100229.84
2018-01-22T21:15:59.606Z,100226.39
2018-01-22T21:18:33.925Z,100234.14
2018-01-22T21:21:02.914Z,100226.20
2018-01-22T21:23:33.248Z,100224.82
2018-01-22T21:26:02.435Z,100230.97
2018-01-22T21:28:31.535Z,100234.19
2018-01-22T21:31:00.640Z,100233.44
2018-01-22T21:33:37.722Z,100232.91
2018-01-22T21:36:06.915Z,100235.77
2018-01-22T21:38:36.860Z,100235.39
2018-01-22T21:41:06.580Z,100234.94
2018-01-22T21:43:35.948Z,100243.52
2018-01-22T21:46:05.004Z,100250.97
2018-01-22T21:48:35.949Z,100227.93
2018-01-22T21:51:06.286Z,100240.45
2018-01-22T21:53:35.456Z,100240.13
2018-01-22T21:56:04.906Z,100245.70
2018-01-22T21:58:34.002Z,100253.87
2018-01-22T22:01:03.059Z,100252.67
2018-01-22T22:03:32.129Z,100257.19
2018-01-22T22:06:01.056Z,100249.17
2018-01-22T22:08:29.922Z,100255.13
2018-01-22T22:10:59.594Z,100247.05
2018-01-22T22:13:28.456Z,100258.39
2018-01-22T22:15:57.285Z,100254.84
2018-01-22T22:18:27.516Z,100257.44
2018-01-22T22:20:56.507Z,100239.17
2018-01-22T22:23:25.488Z,100269.37
2018-01-22T22:25:56.452Z,100265.97
2018-01-22T22:28:25.302Z,100257.27
2018-01-22T22:30:54.167Z,100261.81
2018-01-22T22:33:25.492Z,100263.86
2018-01-22T22:35:54.356Z,100265.41
2018-01-22T22:38:23.205Z,100265.66
2018-01-22T22:40:53.100Z,100263.05
2018-01-22T22:43:22.919Z,100265.62
2018-01-22T22:45:52.702Z,100274.24
2018-01-22T22:48:24.104Z,100264.11
2018-01-22T22:50:54.109Z,100281.71
2018-01-22T22:53:22.995Z,100275.86
2018-01-22T22:55:51.904Z,100268.45
2018-01-22T22:58:20.830Z,100260.31
2018-01-22T23:00:49.778Z,100281.68
2018-01-22T23:03:21.190Z,100275.93
2018-01-22T23:05:50.177Z,100277.97
2018-01-22T23:08:19.048Z,100296.28
2018-01-22T23:10:48.828Z,100305.54
2018-01-22T23:13:18.658Z,100302.56
2018-01-22T23:15:48.519Z,100300.67
2018-01-22T23:18:19.477Z,100296.92
2018-01-22T23:20:49.353Z,100305.77
2018-01-22T23:23:18.338Z,100305.48
2018-01-22T23:25:47.322Z,100309.80
2018-01-22T23:28:16.279Z,100308.73
2018-01-22T23:30:46.324Z,100304.70
2018-01-22T23:33:16.189Z,100312.77
2018-01-22T23:35:45.189Z,100304.35
2018-01-22T23:38:14.147Z,100308.91
2018-01-22T23:40:49.697Z,100311.75
2018-01-22T23:43:21.391Z,100311.97
2018-01-22T23:45:51.196Z,100325.02
2018-01-22T23:48:20.096Z,100317.65
2018-01-22T23:50:49.046Z,100315.36
2018-01-22T23:53:23.034Z,100323.22
2018-01-22T23:55:52.050Z,100322.31
2018-01-22T23:58:20.941Z,100311.94
